Bucyrus, OH

6:47 AM EST on December 11, 2016 (GMT -0500)
5 Fry's Forecast | | Change Station
Active Advisory: Winter Weather Advisory Active Notice: Public Information Statement

Elev 997 ft 40.81 °N, 83.02 °W | Updated 39 seconds ago

Overcast
Overcast
23.2 °F
Feels Like 14 °F
N
7.7
Wind Variable Wind from ESE
Gusts 7.7 mph

Today
High -- | Low -- °F
--% Chance of Precip.
Yesterday
High -- | Low -- °F
Precip. -- in
Pressure 30.37 in
Visibility 6.0 miles
Clouds Overcast 5000 ft
Windchill 14 °F
Dew Point 21 °F
Humidity 94%
Rainfall 0.00 in
Snow Depth Not available.
7:46 AM 5:04 PM
Waxing Gibbous, 91% visible
METAR KMNN 111053Z AUTO 15009KT 6SM BR OVC050 M04/M06 A3032 RMK AO2 SNE35 SLP282 P0000 T10441061
Pressure 30.37 in
Visibility 6.0 miles
Clouds Overcast 5000 ft
Windchill 14 °F
Dew Point 21 °F
Humidity 94%
Rainfall 0.00 in
Snow Depth Not available.
7:46 AM 5:04 PM
Waxing Gibbous, 91% visible
METAR KMNN 111053Z AUTO 15009KT 6SM BR OVC050 M04/M06 A3032 RMK AO2 SNE35 SLP282 P0000 T10441061

10-Day Weather Forecast

Almanac

Astronomy

Dec. 11, 2016 Rise Set
Actual Time
Civil Twilight
Nautical Twilight
Astronomical Twilight
Moon
Length of Visible Light
Length of Day
Tomorrow will be .
, % of the Moon is Illuminated

Today's Extremes

State Highs State Lows

Community

WunderPhotos

Upload Photos

1,956,710 photos uploaded!

WunderBlog® & News

Nearby

Air Quality

  Air Quality AQ Index Pollutant
Not available.

Snow Depth

Station Depth Elevation

Earthquake Activity

City Distance Mag. Time & Date
Minimum magnitude displayed is 2.5.

Coastal Water Temperatures

Place Temperature

Stations

Nearby Weather Stations

Station Location Temp. Windchill Dew Point Humidity Wind Precip. Elev Updated Type
                   

Watches & Warnings

Winter Weather Advisory
Issued: 3:03 AM EST Dec. 11, 2016 – National Weather Service

... Winter Weather Advisory remains in effect until 4 am EST
Monday...

* accumulations... light to moderate snow will result in total
accumulation of 3 to 5 inches by late tonight.

* Timing... occasional snow will occur until late tonight. The snow
will likely mix with or change to rain by evening.

* Impacts... snow covered roads and walkways. Hazardous driving
conditions on untreated roads with reduced visibilities.

* Winds... south 10 to 20 mph with gusts up to 25 mph today
becoming southwest late tonight.

* Temperatures... in the low to mid 20s rising into the low to mid
30s by early tonight.

Precautionary/preparedness actions...

A Winter Weather Advisory for snow is issued when moderate
amounts of accumulating snow will cause travel difficulties. Be
prepared for snow covered roads and limited visibilities... and
use caution while driving.